sensor_id;sensor_type;location;lat;lon;timestamp;pressure;altitude;pressure_sealevel;temperature;humidity
50710;BME280;37033;49.994;21.992;2022-11-23T00:01:14;98416.81;;;-3.36;89.32
50710;BME280;37033;49.994;21.992;2022-11-23T00:04:05;98412.34;;;-3.32;89.40
50710;BME280;37033;49.994;21.992;2022-11-23T00:06:55;98409.79;;;-3.29;89.46
50710;BME280;37033;49.994;21.992;2022-11-23T00:09:45;98411.18;;;-3.28;89.53
50710;BME280;37033;49.994;21.992;2022-11-23T00:12:35;98411.46;;;-3.26;89.65
50710;BME280;37033;49.994;21.992;2022-11-23T00:15:24;98407.40;;;-3.25;89.67
50710;BME280;37033;49.994;21.992;2022-11-23T00:18:15;98408.36;;;-3.22;89.66
50710;BME280;37033;49.994;21.992;2022-11-23T00:21:08;98404.31;;;-3.20;89.77
50710;BME280;37033;49.994;21.992;2022-11-23T00:23:58;98403.03;;;-3.16;89.82
50710;BME280;37033;49.994;21.992;2022-11-23T00:26:47;98406.36;;;-3.13;89.96
50710;BME280;37033;49.994;21.992;2022-11-23T00:29:36;98403.20;;;-3.11;89.99
50710;BME280;37033;49.994;21.992;2022-11-23T00:32:26;98406.59;;;-3.09;90.27
50710;BME280;37033;49.994;21.992;2022-11-23T00:35:16;98403.22;;;-3.07;90.38
50710;BME280;37033;49.994;21.992;2022-11-23T00:38:06;98402.60;;;-3.05;90.48
50710;BME280;37033;49.994;21.992;2022-11-23T00:41:00;98405.45;;;-3.04;90.54
50710;BME280;37033;49.994;21.992;2022-11-23T00:43:50;98404.02;;;-3.02;90.60
50710;BME280;37033;49.994;21.992;2022-11-23T00:46:39;98400.73;;;-3.00;90.76
50710;BME280;37033;49.994;21.992;2022-11-23T00:49:29;98398.20;;;-2.99;90.78
50710;BME280;37033;49.994;21.992;2022-11-23T00:52:18;98391.00;;;-2.96;91.14
50710;BME280;37033;49.994;21.992;2022-11-23T00:55:08;98391.28;;;-2.97;91.37
50710;BME280;37033;49.994;21.992;2022-11-23T00:57:58;98392.67;;;-2.97;91.36
50710;BME280;37033;49.994;21.992;2022-11-23T01:00:48;98393.92;;;-2.95;91.57
50710;BME280;37033;49.994;21.992;2022-11-23T01:03:39;98398.73;;;-2.94;91.63
50710;BME280;37033;49.994;21.992;2022-11-23T01:06:29;98400.54;;;-2.91;91.57
50710;BME280;37033;49.994;21.992;2022-11-23T01:09:19;98404.70;;;-2.89;91.48
50710;BME280;37033;49.994;21.992;2022-11-23T01:12:13;98404.67;;;-2.86;91.42
50710;BME280;37033;49.994;21.992;2022-11-23T01:15:03;98401.17;;;-2.82;91.41
50710;BME280;37033;49.994;21.992;2022-11-23T01:17:53;98398.69;;;-2.79;91.35
50710;BME280;37033;49.994;21.992;2022-11-23T01:20:42;98395.20;;;-2.75;91.30
50710;BME280;37033;49.994;21.992;2022-11-23T01:23:31;98392.35;;;-2.71;91.34
50710;BME280;37033;49.994;21.992;2022-11-23T01:26:22;98392.30;;;-2.70;91.42
50710;BME280;37033;49.994;21.992;2022-11-23T01:29:12;98391.84;;;-2.67;91.36
50710;BME280;37033;49.994;21.992;2022-11-23T01:32:02;98397.10;;;-2.65;91.42
50710;BME280;37033;49.994;21.992;2022-11-23T01:34:51;98400.67;;;-2.64;91.40
50710;BME280;37033;49.994;21.992;2022-11-23T01:37:40;98402.89;;;-2.62;91.38
50710;BME280;37033;49.994;21.992;2022-11-23T01:40:30;98399.02;;;-2.61;91.37
50710;BME280;37033;49.994;21.992;2022-11-23T01:43:27;98403.73;;;-2.60;91.24
50710;BME280;37033;49.994;21.992;2022-11-23T01:46:16;98400.23;;;-2.59;91.29
50710;BME280;37033;49.994;21.992;2022-11-23T01:49:07;98399.77;;;-2.56;91.32
50710;BME280;37033;49.994;21.992;2022-11-23T01:51:58;98399.67;;;-2.55;91.27
50710;BME280;37033;49.994;21.992;2022-11-23T01:54:52;98400.71;;;-2.56;91.13
50710;BME280;37033;49.994;21.992;2022-11-23T01:57:44;98393.73;;;-2.60;91.10
50710;BME280;37033;49.994;21.992;2022-11-23T02:00:35;98386.34;;;-2.60;91.04
50710;BME280;37033;49.994;21.992;2022-11-23T02:03:25;98387.88;;;-2.59;91.19
50710;BME280;37033;49.994;21.992;2022-11-23T02:06:18;98389.60;;;-2.59;91.16
50710;BME280;37033;49.994;21.992;2022-11-23T02:09:08;98388.85;;;-2.57;91.09
50710;BME280;37033;49.994;21.992;2022-11-23T02:11:57;98392.52;;;-2.58;91.05
50710;BME280;37033;49.994;21.992;2022-11-23T02:14:48;98387.50;;;-2.62;91.08
50710;BME280;37033;49.994;21.992;2022-11-23T02:17:38;98387.48;;;-2.68;91.11
50710;BME280;37033;49.994;21.992;2022-11-23T02:20:27;98390.03;;;-2.70;91.05
50710;BME280;37033;49.994;21.992;2022-11-23T02:23:23;98390.56;;;-2.70;91.13
50710;BME280;37033;49.994;21.992;2022-11-23T02:26:17;98385.37;;;-2.73;90.95
50710;BME280;37033;49.994;21.992;2022-11-23T02:29:11;98384.15;;;-2.74;91.06
50710;BME280;37033;49.994;21.992;2022-11-23T02:32:02;98383.70;;;-2.80;91.17
50710;BME280;37033;49.994;21.992;2022-11-23T02:34:53;98382.59;;;-2.81;91.14
50710;BME280;37033;49.994;21.992;2022-11-23T02:37:43;98381.20;;;-2.82;91.10
50710;BME280;37033;49.994;21.992;2022-11-23T02:40:35;98377.70;;;-2.84;91.06
50710;BME280;37033;49.994;21.992;2022-11-23T02:43:24;98372.81;;;-2.85;91.17
50710;BME280;37033;49.994;21.992;2022-11-23T02:46:14;98375.15;;;-2.85;91.13
50710;BME280;37033;49.994;21.992;2022-11-23T02:49:03;98376.80;;;-2.87;91.03
50710;BME280;37033;49.994;21.992;2022-11-23T02:51:52;98371.58;;;-2.88;91.02
50710;BME280;37033;49.994;21.992;2022-11-23T02:54:42;98371.17;;;-2.88;91.16
50710;BME280;37033;49.994;21.992;2022-11-23T02:57:32;98371.27;;;-2.87;91.12
50710;BME280;37033;49.994;21.992;2022-11-23T03:00:21;98370.34;;;-2.86;91.15
50710;BME280;37033;49.994;21.992;2022-11-23T03:03:11;98369.14;;;-2.87;91.10
50710;BME280;37033;49.994;21.992;2022-11-23T03:06:00;98360.00;;;-2.86;91.11
50710;BME280;37033;49.994;21.992;2022-11-23T03:08:50;98363.77;;;-2.85;91.14
50710;BME280;37033;49.994;21.992;2022-11-23T03:11:39;98360.23;;;-2.83;91.11
50710;BME280;37033;49.994;21.992;2022-11-23T03:14:29;98356.48;;;-2.83;91.24
50710;BME280;37033;49.994;21.992;2022-11-23T03:17:18;98351.29;;;-2.81;91.21
50710;BME280;37033;49.994;21.992;2022-11-23T03:20:09;98353.13;;;-2.80;91.21
50710;BME280;37033;49.994;21.992;2022-11-23T03:22:58;98349.17;;;-2.80;91.22
50710;BME280;37033;49.994;21.992;2022-11-23T03:25:55;98348.16;;;-2.82;91.25
50710;BME280;37033;49.994;21.992;2022-11-23T03:28:45;98348.42;;;-2.81;91.29
50710;BME280;37033;49.994;21.992;2022-11-23T03:31:34;98344.11;;;-2.82;91.14
50710;BME280;37033;49.994;21.992;2022-11-23T03:34:23;98340.14;;;-2.82;91.09
50710;BME280;37033;49.994;21.992;2022-11-23T03:37:13;98339.96;;;-2.83;91.22
50710;BME280;37033;49.994;21.992;2022-11-23T03:40:02;98344.27;;;-2.84;91.10
50710;BME280;37033;49.994;21.992;2022-11-23T03:42:52;98346.19;;;-2.85;91.18
50710;BME280;37033;49.994;21.992;2022-11-23T03:45:41;98345.64;;;-2.88;91.19
50710;BME280;37033;49.994;21.992;2022-11-23T03:48:31;98344.41;;;-2.90;91.23
50710;BME280;37033;49.994;21.992;2022-11-23T03:51:21;98348.27;;;-2.90;91.16
50710;BME280;37033;49.994;21.992;2022-11-23T03:54:10;98352.69;;;-2.90;91.29
50710;BME280;37033;49.994;21.992;2022-11-23T03:56:59;98356.63;;;-2.89;91.36
50710;BME280;37033;49.994;21.992;2022-11-23T03:59:49;98357.81;;;-2.87;91.50
50710;BME280;37033;49.994;21.992;2022-11-23T04:02:38;98357.62;;;-2.84;91.45
50710;BME280;37033;49.994;21.992;2022-11-23T04:05:28;98357.86;;;-2.82;91.57
50710;BME280;37033;49.994;21.992;2022-11-23T04:08:17;98354.27;;;-2.78;91.52
50710;BME280;37033;49.994;21.992;2022-11-23T04:11:06;98357.55;;;-2.76;91.55
50710;BME280;37033;49.994;21.992;2022-11-23T04:13:56;98368.95;;;-2.76;91.57
50710;BME280;37033;49.994;21.992;2022-11-23T04:16:45;98373.83;;;-2.75;91.69
50710;BME280;37033;49.994;21.992;2022-11-23T04:19:35;98373.10;;;-2.74;91.56
50710;BME280;37033;49.994;21.992;2022-11-23T04:22:24;98370.39;;;-2.70;91.60
50710;BME280;37033;49.994;21.992;2022-11-23T04:25:14;98365.17;;;-2.68;91.62
50710;BME280;37033;49.994;21.992;2022-11-23T04:28:03;98371.95;;;-2.67;91.47
50710;BME280;37033;49.994;21.992;2022-11-23T04:30:52;98373.46;;;-2.64;91.60
50710;BME280;37033;49.994;21.992;2022-11-23T04:33:42;98369.10;;;-2.61;91.59
50710;BME280;37033;49.994;21.992;2022-11-23T04:36:31;98366.79;;;-2.60;91.49
50710;BME280;37033;49.994;21.992;2022-11-23T04:39:21;98377.91;;;-2.61;91.39
50710;BME280;37033;49.994;21.992;2022-11-23T04:42:11;98375.06;;;-2.59;91.54
50710;BME280;37033;49.994;21.992;2022-11-23T04:45:00;98377.21;;;-2.57;91.45
50710;BME280;37033;49.994;21.992;2022-11-23T04:47:50;98385.55;;;-2.56;91.46
50710;BME280;37033;49.994;21.992;2022-11-23T04:50:39;98385.75;;;-2.53;91.55
50710;BME280;37033;49.994;21.992;2022-11-23T04:53:29;98381.97;;;-2.48;91.64
50710;BME280;37033;49.994;21.992;2022-11-23T04:56:18;98381.62;;;-2.44;91.74
50710;BME280;37033;49.994;21.992;2022-11-23T04:59:07;98378.30;;;-2.41;91.65
50710;BME280;37033;49.994;21.992;2022-11-23T05:01:57;98376.94;;;-2.39;91.67
50710;BME280;37033;49.994;21.992;2022-11-23T05:04:47;98371.30;;;-2.36;91.61
50710;BME280;37033;49.994;21.992;2022-11-23T05:07:36;98365.14;;;-2.33;91.63
50710;BME280;37033;49.994;21.992;2022-11-23T05:10:26;98362.80;;;-2.31;91.62
50710;BME280;37033;49.994;21.992;2022-11-23T05:13:15;98354.91;;;-2.27;91.68
50710;BME280;37033;49.994;21.992;2022-11-23T05:16:05;98363.08;;;-2.22;91.79
50710;BME280;37033;49.994;21.992;2022-11-23T05:18:55;98363.77;;;-2.16;92.00
50710;BME280;37033;49.994;21.992;2022-11-23T05:21:45;98356.40;;;-2.07;92.24
50710;BME280;37033;49.994;21.992;2022-11-23T05:24:34;98342.98;;;-1.98;92.53
50710;BME280;37033;49.994;21.992;2022-11-23T05:27:24;98333.70;;;-1.91;92.72
50710;BME280;37033;49.994;21.992;2022-11-23T05:30:14;98327.00;;;-1.84;92.82
50710;BME280;37033;49.994;21.992;2022-11-23T05:33:04;98336.25;;;-1.78;92.84
50710;BME280;37033;49.994;21.992;2022-11-23T05:35:53;98343.16;;;-1.72;92.76
50710;BME280;37033;49.994;21.992;2022-11-23T05:38:43;98344.35;;;-1.68;92.78
50710;BME280;37033;49.994;21.992;2022-11-23T05:41:32;98346.54;;;-1.62;92.76
50710;BME280;37033;49.994;21.992;2022-11-23T05:44:22;98350.27;;;-1.58;92.78
50710;BME280;37033;49.994;21.992;2022-11-23T05:47:11;98348.02;;;-1.54;92.85
50710;BME280;37033;49.994;21.992;2022-11-23T05:50:00;98349.60;;;-1.52;92.73
50710;BME280;37033;49.994;21.992;2022-11-23T05:52:50;98344.89;;;-1.52;92.78
50710;BME280;37033;49.994;21.992;2022-11-23T05:55:39;98346.00;;;-1.52;92.69
50710;BME280;37033;49.994;21.992;2022-11-23T05:58:29;98348.20;;;-1.51;92.85
50710;BME280;37033;49.994;21.992;2022-11-23T06:01:18;98343.07;;;-1.50;92.83
50710;BME280;37033;49.994;21.992;2022-11-23T06:04:07;98345.61;;;-1.49;92.98
50710;BME280;37033;49.994;21.992;2022-11-23T06:06:57;98340.71;;;-1.48;92.98
50710;BME280;37033;49.994;21.992;2022-11-23T06:09:47;98345.35;;;-1.47;93.07
50710;BME280;37033;49.994;21.992;2022-11-23T06:12:37;98346.66;;;-1.47;93.27
50710;BME280;37033;49.994;21.992;2022-11-23T06:15:26;98350.35;;;-1.47;93.25
50710;BME280;37033;49.994;21.992;2022-11-23T06:18:16;98361.55;;;-1.46;93.22
50710;BME280;37033;49.994;21.992;2022-11-23T06:21:06;98375.60;;;-1.44;93.29
50710;BME280;37033;49.994;21.992;2022-11-23T06:23:55;98379.60;;;-1.41;93.41
50710;BME280;37033;49.994;21.992;2022-11-23T06:26:45;98373.30;;;-1.35;93.55
50710;BME280;37033;49.994;21.992;2022-11-23T06:29:35;98377.30;;;-1.33;93.69
50710;BME280;37033;49.994;21.992;2022-11-23T06:32:24;98385.58;;;-1.31;93.70
50710;BME280;37033;49.994;21.992;2022-11-23T06:35:14;98395.16;;;-1.27;93.67
50710;BME280;37033;49.994;21.992;2022-11-23T06:38:04;98400.45;;;-1.24;93.77
50710;BME280;37033;49.994;21.992;2022-11-23T06:40:54;98408.72;;;-1.22;93.80
50710;BME280;37033;49.994;21.992;2022-11-23T06:43:46;98402.85;;;-1.17;93.72
50710;BME280;37033;49.994;21.992;2022-11-23T06:46:36;98406.30;;;-1.13;93.74
50710;BME280;37033;49.994;21.992;2022-11-23T06:49:25;98410.56;;;-1.09;93.79
50710;BME280;37033;49.994;21.992;2022-11-23T06:52:16;98411.00;;;-1.07;93.64
50710;BME280;37033;49.994;21.992;2022-11-23T06:55:06;98407.56;;;-1.05;93.68
50710;BME280;37033;49.994;21.992;2022-11-23T06:57:56;98403.35;;;-1.03;93.59
50710;BME280;37033;49.994;21.992;2022-11-23T07:00:46;98406.83;;;-1.01;93.67
50710;BME280;37033;49.994;21.992;2022-11-23T07:03:36;98406.00;;;-1.01;93.62
50710;BME280;37033;49.994;21.992;2022-11-23T07:06:25;98401.73;;;-1.01;93.61
50710;BME280;37033;49.994;21.992;2022-11-23T07:09:15;98388.59;;;-1.01;93.64
50710;BME280;37033;49.994;21.992;2022-11-23T07:12:05;98383.71;;;-1.01;93.65
50710;BME280;37033;49.994;21.992;2022-11-23T07:14:54;98387.30;;;-0.99;93.75
50710;BME280;37033;49.994;21.992;2022-11-23T07:17:44;98380.83;;;-0.99;93.76
50710;BME280;37033;49.994;21.992;2022-11-23T07:20:33;98385.46;;;-0.99;93.64
50710;BME280;37033;49.994;21.992;2022-11-23T07:23:23;98392.45;;;-0.98;93.67
50710;BME280;37033;49.994;21.992;2022-11-23T07:26:13;98389.88;;;-0.97;93.65
50710;BME280;37033;49.994;21.992;2022-11-23T07:29:03;98390.73;;;-0.97;93.55
50710;BME280;37033;49.994;21.992;2022-11-23T07:31:52;98383.11;;;-0.95;93.57
50710;BME280;37033;49.994;21.992;2022-11-23T07:34:42;98375.23;;;-0.96;93.54
50710;BME280;37033;49.994;21.992;2022-11-23T07:37:31;98376.20;;;-0.97;93.57
50710;BME280;37033;49.994;21.992;2022-11-23T07:40:20;98373.66;;;-0.97;93.62
50710;BME280;37033;49.994;21.992;2022-11-23T07:43:10;98368.34;;;-0.98;93.63
50710;BME280;37033;49.994;21.992;2022-11-23T07:46:00;98365.87;;;-0.97;93.69
50710;BME280;37033;49.994;21.992;2022-11-23T07:48:49;98373.45;;;-0.96;93.74
50710;BME280;37033;49.994;21.992;2022-11-23T07:51:41;98378.84;;;-0.97;93.76
50710;BME280;37033;49.994;21.992;2022-11-23T07:54:30;98373.43;;;-0.95;93.72
50710;BME280;37033;49.994;21.992;2022-11-23T07:57:20;98370.85;;;-0.94;93.81
50710;BME280;37033;49.994;21.992;2022-11-23T08:00:11;98382.39;;;-0.94;93.75
50710;BME280;37033;49.994;21.992;2022-11-23T08:03:01;98393.52;;;-0.92;93.70
50710;BME280;37033;49.994;21.992;2022-11-23T08:05:50;98394.48;;;-0.91;93.60
50710;BME280;37033;49.994;21.992;2022-11-23T08:08:40;98395.95;;;-0.91;93.50
50710;BME280;37033;49.994;21.992;2022-11-23T08:11:30;98400.83;;;-0.91;93.35
50710;BME280;37033;49.994;21.992;2022-11-23T08:14:20;98402.76;;;-0.91;93.29
50710;BME280;37033;49.994;21.992;2022-11-23T08:17:10;98401.79;;;-0.90;93.23
50710;BME280;37033;49.994;21.992;2022-11-23T08:20:00;98391.55;;;-0.88;93.20
50710;BME280;37033;49.994;21.992;2022-11-23T08:22:50;98390.08;;;-0.86;93.08
50710;BME280;37033;49.994;21.992;2022-11-23T08:25:40;98388.48;;;-0.86;92.88
50710;BME280;37033;49.994;21.992;2022-11-23T08:28:30;98367.19;;;-0.86;92.85
50710;BME280;37033;49.994;21.992;2022-11-23T08:31:20;98379.85;;;-0.88;92.77
50710;BME280;37033;49.994;21.992;2022-11-23T08:34:09;98385.06;;;-0.87;92.86
50710;BME280;37033;49.994;21.992;2022-11-23T08:36:59;98380.95;;;-0.85;92.92
50710;BME280;37033;49.994;21.992;2022-11-23T08:39:49;98391.08;;;-0.84;92.97
50710;BME280;37033;49.994;21.992;2022-11-23T08:42:38;98393.79;;;-0.85;92.96
50710;BME280;37033;49.994;21.992;2022-11-23T08:45:28;98390.55;;;-0.83;92.94
50710;BME280;37033;49.994;21.992;2022-11-23T08:48:18;98402.61;;;-0.84;92.86
50710;BME280;37033;49.994;21.992;2022-11-23T08:51:09;98394.32;;;-0.84;92.85
50710;BME280;37033;49.994;21.992;2022-11-23T08:53:58;98400.85;;;-0.84;92.86
50710;BME280;37033;49.994;21.992;2022-11-23T08:56:48;98396.67;;;-0.82;92.80
50710;BME280;37033;49.994;21.992;2022-11-23T08:59:38;98392.14;;;-0.81;92.87
50710;BME280;37033;49.994;21.992;2022-11-23T09:02:27;98381.90;;;-0.79;92.60
50710;BME280;37033;49.994;21.992;2022-11-23T09:05:17;98386.45;;;-0.80;92.67
50710;BME280;37033;49.994;21.992;2022-11-23T09:08:08;98391.16;;;-0.79;92.66
50710;BME280;37033;49.994;21.992;2022-11-23T09:11:02;98374.09;;;-0.79;92.60
50710;BME280;37033;49.994;21.992;2022-11-23T09:13:52;98370.51;;;-0.76;92.73
50710;BME280;37033;49.994;21.992;2022-11-23T09:16:42;98368.73;;;-0.77;92.50
50710;BME280;37033;49.994;21.992;2022-11-23T09:19:34;98369.30;;;-0.78;92.47
50710;BME280;37033;49.994;21.992;2022-11-23T09:22:23;98379.12;;;-0.77;92.58
50710;BME280;37033;49.994;21.992;2022-11-23T09:25:13;98384.05;;;-0.75;92.52
50710;BME280;37033;49.994;21.992;2022-11-23T09:28:04;98389.31;;;-0.75;92.50
50710;BME280;37033;49.994;21.992;2022-11-23T09:30:54;98380.48;;;-0.76;92.47
50710;BME280;37033;49.994;21.992;2022-11-23T09:33:45;98387.55;;;-0.76;92.52
50710;BME280;37033;49.994;21.992;2022-11-23T09:36:35;98382.77;;;-0.76;92.54
50710;BME280;37033;49.994;21.992;2022-11-23T09:39:25;98379.66;;;-0.77;92.56
50710;BME280;37033;49.994;21.992;2022-11-23T09:42:34;98382.19;;;-0.77;92.63
50710;BME280;37033;49.994;21.992;2022-11-23T09:45:32;98386.60;;;-0.76;92.58
50710;BME280;37033;49.994;21.992;2022-11-23T09:48:42;98382.40;;;-0.77;92.54
50710;BME280;37033;49.994;21.992;2022-11-23T09:51:38;98378.83;;;-0.77;92.64
50710;BME280;37033;49.994;21.992;2022-11-23T09:54:32;98374.98;;;-0.79;92.52
50710;BME280;37033;49.994;21.992;2022-11-23T09:57:25;98371.79;;;-0.81;92.52
50710;BME280;37033;49.994;21.992;2022-11-23T10:00:22;98370.38;;;-0.82;92.60
50710;BME280;37033;49.994;21.992;2022-11-23T10:03:16;98363.27;;;-0.81;92.55
50710;BME280;37033;49.994;21.992;2022-11-23T10:06:17;98361.98;;;-0.79;92.66
50710;BME280;37033;49.994;21.992;2022-11-23T10:09:20;98354.45;;;-0.77;92.69
50710;BME280;37033;49.994;21.992;2022-11-23T10:12:22;98344.29;;;-0.74;92.70
50710;BME280;37033;49.994;21.992;2022-11-23T10:15:17;98336.29;;;-0.73;92.66
50710;BME280;37033;49.994;21.992;2022-11-23T10:18:25;98326.70;;;-0.70;92.69
50710;BME280;37033;49.994;21.992;2022-11-23T10:21:25;98316.45;;;-0.68;92.69
50710;BME280;37033;49.994;21.992;2022-11-23T10:24:19;98322.08;;;-0.67;92.55
50710;BME280;37033;49.994;21.992;2022-11-23T10:27:15;98312.23;;;-0.67;92.63
50710;BME280;37033;49.994;21.992;2022-11-23T10:30:12;98314.69;;;-0.67;92.55
50710;BME280;37033;49.994;21.992;2022-11-23T10:33:14;98309.45;;;-0.64;92.65
50710;BME280;37033;49.994;21.992;2022-11-23T10:36:07;98307.40;;;-0.64;92.58
50710;BME280;37033;49.994;21.992;2022-11-23T10:39:00;98314.48;;;-0.66;92.59
50710;BME280;37033;49.994;21.992;2022-11-23T10:41:51;98315.97;;;-0.65;92.47
50710;BME280;37033;49.994;21.992;2022-11-23T10:44:41;98315.58;;;-0.64;92.70
50710;BME280;37033;49.994;21.992;2022-11-23T10:47:37;98314.73;;;-0.60;92.62
50710;BME280;37033;49.994;21.992;2022-11-23T10:50:29;98316.59;;;-0.59;92.56
50710;BME280;37033;49.994;21.992;2022-11-23T10:53:22;98317.25;;;-0.57;92.55
50710;BME280;37033;49.994;21.992;2022-11-23T10:56:15;98316.92;;;-0.57;92.58
50710;BME280;37033;49.994;21.992;2022-11-23T10:59:08;98316.79;;;-0.59;92.43
50710;BME280;37033;49.994;21.992;2022-11-23T11:02:19;98318.96;;;-0.61;92.45
50710;BME280;37033;49.994;21.992;2022-11-23T11:05:25;98319.13;;;-0.61;92.51
50710;BME280;37033;49.994;21.992;2022-11-23T11:08:18;98313.16;;;-0.62;92.51
50710;BME280;37033;49.994;21.992;2022-11-23T11:11:10;98301.99;;;-0.61;92.47
50710;BME280;37033;49.994;21.992;2022-11-23T11:14:16;98301.11;;;-0.64;92.51
50710;BME280;37033;49.994;21.992;2022-11-23T11:17:26;98296.92;;;-0.64;92.45
50710;BME280;37033;49.994;21.992;2022-11-23T11:20:32;98299.52;;;-0.63;92.49
50710;BME280;37033;49.994;21.992;2022-11-23T11:23:21;98299.28;;;-0.62;92.61
50710;BME280;37033;49.994;21.992;2022-11-23T11:26:20;98303.50;;;-0.63;92.57
50710;BME280;37033;49.994;21.992;2022-11-23T11:29:27;98312.94;;;-0.63;92.64
50710;BME280;37033;49.994;21.992;2022-11-23T11:32:21;98314.36;;;-0.61;92.54
50710;BME280;37033;49.994;21.992;2022-11-23T11:35:19;98311.38;;;-0.59;92.51
50710;BME280;37033;49.994;21.992;2022-11-23T11:38:16;98307.85;;;-0.59;92.49
50710;BME280;37033;49.994;21.992;2022-11-23T11:41:09;98304.96;;;-0.60;92.47
50710;BME280;37033;49.994;21.992;2022-11-23T11:44:06;98306.90;;;-0.57;92.45
50710;BME280;37033;49.994;21.992;2022-11-23T11:47:03;98315.89;;;-0.58;92.41
50710;BME280;37033;49.994;21.992;2022-11-23T11:49:56;98322.35;;;-0.55;92.42
50710;BME280;37033;49.994;21.992;2022-11-23T11:52:49;98322.66;;;-0.53;92.42
50710;BME280;37033;49.994;21.992;2022-11-23T11:55:49;98315.35;;;-0.53;92.30
50710;BME280;37033;49.994;21.992;2022-11-23T11:58:48;98312.52;;;-0.53;92.22
50710;BME280;37033;49.994;21.992;2022-11-23T12:01:44;98315.36;;;-0.52;92.22
50710;BME280;37033;49.994;21.992;2022-11-23T12:04:40;98314.37;;;-0.51;92.29
50710;BME280;37033;49.994;21.992;2022-11-23T12:07:34;98313.08;;;-0.48;92.27
50710;BME280;37033;49.994;21.992;2022-11-23T12:10:27;98316.27;;;-0.51;92.11
50710;BME280;37033;49.994;21.992;2022-11-23T12:13:20;98318.35;;;-0.51;92.16
50710;BME280;37033;49.994;21.992;2022-11-23T12:16:17;98317.96;;;-0.48;92.25
50710;BME280;37033;49.994;21.992;2022-11-23T12:19:15;98321.97;;;-0.45;92.17
50710;BME280;37033;49.994;21.992;2022-11-23T12:22:23;98329.42;;;-0.48;92.12
50710;BME280;37033;49.994;21.992;2022-11-23T12:25:26;98326.02;;;-0.48;92.19
50710;BME280;37033;49.994;21.992;2022-11-23T12:28:33;98323.84;;;-0.46;92.24
50710;BME280;37033;49.994;21.992;2022-11-23T12:31:38;98320.61;;;-0.43;92.22
50710;BME280;37033;49.994;21.992;2022-11-23T12:34:50;98314.42;;;-0.42;92.15
50710;BME280;37033;49.994;21.992;2022-11-23T12:37:54;98317.02;;;-0.42;92.09
50710;BME280;37033;49.994;21.992;2022-11-23T12:40:57;98310.76;;;-0.43;91.77
50710;BME280;37033;49.994;21.992;2022-11-23T12:44:06;98302.94;;;-0.45;91.48
50710;BME280;37033;49.994;21.992;2022-11-23T12:47:04;98296.59;;;-0.45;91.53
50710;BME280;37033;49.994;21.992;2022-11-23T12:50:07;98292.77;;;-0.45;91.38
50710;BME280;37033;49.994;21.992;2022-11-23T12:53:14;98290.45;;;-0.47;90.96
50710;BME280;37033;49.994;21.992;2022-11-23T12:56:16;98286.27;;;-0.47;90.95
50710;BME280;37033;49.994;21.992;2022-11-23T12:59:10;98284.54;;;-0.47;90.89
50710;BME280;37033;49.994;21.992;2022-11-23T13:02:05;98290.70;;;-0.47;90.87
50710;BME280;37033;49.994;21.992;2022-11-23T13:05:22;98300.23;;;-0.48;90.75
50710;BME280;37033;49.994;21.992;2022-11-23T13:08:47;98310.25;;;-0.48;91.01
50710;BME280;37033;49.994;21.992;2022-11-23T13:11:49;98312.75;;;-0.48;91.03
50710;BME280;37033;49.994;21.992;2022-11-23T13:14:47;98314.61;;;-0.46;91.00
50710;BME280;37033;49.994;21.992;2022-11-23T13:17:51;98311.97;;;-0.47;90.86
50710;BME280;37033;49.994;21.992;2022-11-23T13:20:58;98316.23;;;-0.48;90.86
50710;BME280;37033;49.994;21.992;2022-11-23T13:23:51;98308.03;;;-0.48;90.71
50710;BME280;37033;49.994;21.992;2022-11-23T13:26:41;98305.95;;;-0.50;90.76
50710;BME280;37033;49.994;21.992;2022-11-23T13:29:56;98313.98;;;-0.48;90.71
50710;BME280;37033;49.994;21.992;2022-11-23T13:32:57;98306.71;;;-0.47;90.68
50710;BME280;37033;49.994;21.992;2022-11-23T13:36:00;98300.30;;;-0.47;90.82
50710;BME280;37033;49.994;21.992;2022-11-23T13:38:50;98293.88;;;-0.46;90.74
50710;BME280;37033;49.994;21.992;2022-11-23T13:41:58;98299.90;;;-0.47;90.57
50710;BME280;37033;49.994;21.992;2022-11-23T13:44:48;98300.55;;;-0.49;90.60
50710;BME280;37033;49.994;21.992;2022-11-23T13:48:13;98296.50;;;-0.51;90.61
50710;BME280;37033;49.994;21.992;2022-11-23T13:51:05;98291.30;;;-0.52;90.64
50710;BME280;37033;49.994;21.992;2022-11-23T13:54:00;98290.67;;;-0.52;90.40
50710;BME280;37033;49.994;21.992;2022-11-23T13:57:00;98288.14;;;-0.55;90.44
50710;BME280;37033;49.994;21.992;2022-11-23T13:59:51;98290.23;;;-0.59;90.34
50710;BME280;37033;49.994;21.992;2022-11-23T14:02:41;98291.48;;;-0.61;90.46
50710;BME280;37033;49.994;21.992;2022-11-23T14:05:55;98292.92;;;-0.61;90.42
50710;BME280;37033;49.994;21.992;2022-11-23T14:08:48;98291.96;;;-0.63;90.46
50710;BME280;37033;49.994;21.992;2022-11-23T14:11:49;98294.42;;;-0.64;90.45
50710;BME280;37033;49.994;21.992;2022-11-23T14:14:52;98292.23;;;-0.65;90.59
50710;BME280;37033;49.994;21.992;2022-11-23T14:17:58;98295.37;;;-0.64;90.55
50710;BME280;37033;49.994;21.992;2022-11-23T14:21:02;98297.14;;;-0.63;90.51
50710;BME280;37033;49.994;21.992;2022-11-23T14:24:28;98299.85;;;-0.63;90.58
50710;BME280;37033;49.994;21.992;2022-11-23T14:27:28;98294.66;;;-0.65;90.57
50710;BME280;37033;49.994;21.992;2022-11-23T14:30:37;98294.38;;;-0.64;90.64
50710;BME280;37033;49.994;21.992;2022-11-23T14:33:35;98300.55;;;-0.64;90.63
50710;BME280;37033;49.994;21.992;2022-11-23T14:36:36;98301.89;;;-0.65;90.75
50710;BME280;37033;49.994;21.992;2022-11-23T14:39:43;98301.36;;;-0.64;90.83
50710;BME280;37033;49.994;21.992;2022-11-23T14:42:41;98303.45;;;-0.62;90.86
50710;BME280;37033;49.994;21.992;2022-11-23T14:45:34;98306.10;;;-0.61;90.91
50710;BME280;37033;49.994;21.992;2022-11-23T14:48:28;98313.23;;;-0.61;90.84
50710;BME280;37033;49.994;21.992;2022-11-23T14:51:21;98313.60;;;-0.59;90.93
50710;BME280;37033;49.994;21.992;2022-11-23T14:54:15;98305.84;;;-0.60;90.92
50710;BME280;37033;49.994;21.992;2022-11-23T14:57:10;98319.55;;;-0.58;90.88
50710;BME280;37033;49.994;21.992;2022-11-23T15:00:01;98322.64;;;-0.57;90.93
50710;BME280;37033;49.994;21.992;2022-11-23T15:02:52;98322.19;;;-0.56;90.89
50710;BME280;37033;49.994;21.992;2022-11-23T15:05:46;98317.70;;;-0.58;90.93